Time;durP1;ratioP1;P1;durP2;ratioP2;P2;SDS_P1;SDS_P2;PMS_P1;PMS_P2;Temp;Humidity;BMP_temperature;BMP_pressure;BME280_temperature;BME280_humidity;BME280_pressure;Samples;Min_cycle;Max_cycle;Signal;HPM_P1;HPM_P2
2022/09/10 00:02:05;;;;;;;2.97;0.90;;;14.80;99.90;;;;;;5069149;28;20703;-79
2022/09/10 00:04:30;;;;;;;2.58;0.65;;;14.70;99.90;;;;;;5069887;28;20205;-77
2022/09/10 00:06:56;;;;;;;2.47;0.93;;;14.60;99.90;;;;;;5071815;28;20185;-77
2022/09/10 00:09:22;;;;;;;3.33;0.95;;;14.50;99.90;;;;;;5072172;28;20268;-79
2022/09/10 00:11:48;;;;;;;1.60;0.93;;;14.40;99.90;;;;;;5071273;28;20197;-77
2022/09/10 00:14:20;;;;;;;1.35;0.90;;;14.40;99.90;;;;;;5070270;28;20197;-77
2022/09/10 00:16:46;;;;;;;2.95;1.10;;;14.40;99.90;;;;;;5071272;28;20196;-79
2022/09/10 00:19:12;;;;;;;2.97;1.30;;;14.40;99.90;;;;;;5072100;28;20206;-79
2022/09/10 00:21:37;;;;;;;1.73;0.90;;;14.40;99.90;;;;;;5071667;28;20201;-79
2022/09/10 00:24:04;;;;;;;1.35;0.85;;;14.30;99.90;;;;;;5072086;28;20182;-79
2022/09/10 00:26:34;;;;;;;1.80;0.73;;;14.30;99.90;;;;;;5072057;28;20182;-79
2022/09/10 00:29:00;;;;;;;2.63;0.90;;;14.30;99.90;;;;;;5071401;28;20181;-79
2022/09/10 00:31:27;;;;;;;4.07;1.38;;;14.40;99.90;;;;;;5072132;28;20360;-79
2022/09/10 00:33:53;;;;;;;2.25;0.80;;;14.30;99.90;;;;;;5072945;28;20240;-81
2022/09/10 00:36:35;;;;;;;2.20;0.90;;;14.30;99.90;;;;;;5071869;28;20196;-78
2022/09/10 00:39:04;;;;;;;2.05;0.80;;;14.20;99.90;;;;;;5074088;28;20188;-80
2022/09/10 00:41:32;;;;;;;2.17;1.02;;;14.10;99.90;;;;;;5075159;28;20299;-80
2022/09/10 00:44:04;;;;;;;2.03;0.93;;;14.20;99.90;;;;;;5075298;28;20189;-77
2022/09/10 00:46:43;;;;;;;2.00;1.00;;;14.20;99.90;;;;;;5075378;28;20177;-80
2022/09/10 00:49:19;;;;;;;4.22;0.80;;;14.10;99.90;;;;;;5075388;28;20181;-79
2022/09/10 00:51:46;;;;;;;1.65;0.90;;;14.10;99.90;;;;;;5076089;28;20177;-81
2022/09/10 00:54:13;;;;;;;1.75;0.80;;;14.00;99.90;;;;;;5075995;28;20785;-80
2022/09/10 00:56:38;;;;;;;0.90;0.82;;;14.00;99.90;;;;;;5073871;28;20190;-78
2022/09/10 00:59:08;;;;;;;1.80;1.25;;;14.10;99.90;;;;;;5076225;28;20248;-76
2022/09/10 01:01:36;;;;;;;2.03;1.00;;;14.20;99.90;;;;;;5075275;28;20209;-81
2022/09/10 01:04:03;;;;;;;2.40;0.90;;;14.20;99.90;;;;;;5075424;28;20183;-79
2022/09/10 01:06:29;;;;;;;1.85;1.10;;;14.20;99.90;;;;;;5073470;28;20185;-79
2022/09/10 01:08:55;;;;;;;2.95;1.00;;;14.20;99.90;;;;;;5073070;28;20269;-79
2022/09/10 01:11:45;;;;;;;1.52;0.85;;;14.30;99.90;;;;;;5075479;28;20239;-80
2022/09/10 01:14:24;;;;;;;2.08;1.08;;;14.30;99.90;;;;;;5072979;28;20252;-78
2022/09/10 01:17:11;;;;;;;2.38;1.20;;;14.30;99.90;;;;;;5074339;28;20189;-79
2022/09/10 01:19:55;;;;;;;1.38;0.80;;;14.30;99.90;;;;;;5074038;28;20186;-77
2022/09/10 01:22:51;;;;;;;1.98;0.98;;;14.30;99.90;;;;;;5074933;28;20221;-76
2022/09/10 01:25:33;;;;;;;2.35;0.80;;;14.30;99.90;;;;;;5074561;28;20567;-77
2022/09/10 01:28:05;;;;;;;3.58;1.00;;;14.30;99.90;;;;;;5074338;28;20197;-79
2022/09/10 01:30:55;;;;;;;1.98;0.70;;;14.40;99.90;;;;;;5074498;28;20712;-78
2022/09/10 01:33:41;;;;;;;3.08;0.90;;;14.50;99.90;;;;;;5074498;28;20177;-78
2022/09/10 01:36:13;;;;;;;2.15;0.80;;;14.50;99.90;;;;;;5073664;28;20570;-77
2022/09/10 01:38:40;;;;;;;0.73;0.70;;;14.50;99.90;;;;;;5073954;28;20181;-79
2022/09/10 01:41:07;;;;;;;1.80;0.90;;;14.50;99.90;;;;;;5073323;28;20209;-78
2022/09/10 01:43:33;;;;;;;2.30;0.80;;;14.50;99.90;;;;;;5074115;28;20224;-79
2022/09/10 01:46:02;;;;;;;2.67;1.05;;;14.40;99.90;;;;;;5073682;28;20201;-79
2022/09/10 01:48:59;;;;;;;1.90;0.70;;;14.50;99.90;;;;;;5074167;28;20177;-78
2022/09/10 01:51:30;;;;;;;2.30;0.80;;;14.60;99.90;;;;;;5071870;28;20185;-77
2022/09/10 01:54:25;;;;;;;3.60;1.20;;;14.60;99.90;;;;;;5074131;28;20193;-77
2022/09/10 01:57:02;;;;;;;1.67;0.80;;;14.60;99.90;;;;;;5072792;28;20279;-79
2022/09/10 01:59:43;;;;;;;4.15;1.20;;;14.50;99.90;;;;;;5073528;28;20181;-80
2022/09/10 02:02:15;;;;;;;1.27;0.90;;;14.50;99.90;;;;;;5073423;28;20306;-79
2022/09/10 02:04:42;;;;;;;1.88;1.30;;;14.50;99.90;;;;;;5074072;28;20679;-80
2022/09/10 02:07:11;;;;;;;2.22;0.90;;;14.50;99.90;;;;;;5073445;28;20193;-79
2022/09/10 02:09:37;;;;;;;1.65;0.98;;;14.40;99.90;;;;;;5073541;28;20169;-78
2022/09/10 02:12:02;;;;;;;3.90;1.00;;;14.30;99.90;;;;;;5074400;28;20527;-78
2022/09/10 02:14:28;;;;;;;1.90;0.82;;;14.30;99.90;;;;;;5072828;28;20206;-80
2022/09/10 02:16:57;;;;;;;2.15;0.80;;;14.30;99.90;;;;;;5074815;28;20596;-81
2022/09/10 02:19:25;;;;;;;1.10;0.70;;;14.20;99.90;;;;;;5074728;28;20284;-78
2022/09/10 02:21:52;;;;;;;1.65;0.80;;;14.30;99.90;;;;;;5073125;28;20599;-77
2022/09/10 02:24:19;;;;;;;2.38;0.70;;;14.40;99.90;;;;;;5073938;28;20339;-79
2022/09/10 02:26:46;;;;;;;2.13;1.05;;;14.40;99.90;;;;;;5073042;28;20188;-79
2022/09/10 02:29:14;;;;;;;2.13;0.98;;;14.30;99.90;;;;;;5073633;28;20173;-78
2022/09/10 02:31:41;;;;;;;1.73;0.88;;;14.40;99.90;;;;;;5072637;28;20188;-79
2022/09/10 02:34:07;;;;;;;1.88;0.90;;;14.50;99.90;;;;;;5073054;28;20201;-80
2022/09/10 02:36:34;;;;;;;1.08;0.85;;;14.50;99.90;;;;;;5072058;28;20223;-79
2022/09/10 02:39:02;;;;;;;2.28;0.70;;;14.50;99.90;;;;;;5071866;28;20216;-82
2022/09/10 02:41:29;;;;;;;2.10;0.90;;;14.50;99.90;;;;;;5070206;28;20210;-77
2022/09/10 02:43:54;;;;;;;1.17;0.80;;;14.60;99.90;;;;;;5071615;28;20180;-76
2022/09/10 02:46:21;;;;;;;2.75;0.77;;;14.60;99.90;;;;;;5071752;28;20186;-79
2022/09/10 02:48:47;;;;;;;2.03;0.85;;;14.50;99.90;;;;;;5071411;28;20191;-79
2022/09/10 02:51:12;;;;;;;5.47;0.95;;;14.50;99.90;;;;;;5072038;28;20209;-77
2022/09/10 02:53:38;;;;;;;2.55;0.90;;;14.50;99.90;;;;;;5071114;28;20185;-79
2022/09/10 02:56:04;;;;;;;1.50;0.80;;;14.50;99.90;;;;;;5072113;28;20221;-78
2022/09/10 02:58:30;;;;;;;1.52;0.90;;;14.50;99.90;;;;;;5071911;28;20260;-77
2022/09/10 03:01:25;;;;;;;2.08;0.98;;;14.50;99.90;;;;;;5069777;28;20254;-82
2022/09/10 03:03:57;;;;;;;1.67;1.00;;;14.50;99.90;;;;;;5061291;28;20659;-80
2022/09/10 03:06:23;;;;;;;4.00;1.10;;;14.60;99.90;;;;;;5072196;28;20169;-78
2022/09/10 03:08:50;;;;;;;3.05;1.15;;;14.60;99.90;;;;;;5070821;28;20186;-78
2022/09/10 03:11:16;;;;;;;1.23;0.70;;;14.50;99.90;;;;;;5069884;28;20182;-77
2022/09/10 03:13:44;;;;;;;0.98;0.80;;;14.50;99.90;;;;;;5071769;28;20185;-79
2022/09/10 03:16:13;;;;;;;2.53;1.23;;;14.60;99.90;;;;;;5070852;28;20693;-80
2022/09/10 03:18:40;;;;;;;2.65;0.85;;;14.60;99.90;;;;;;5072568;28;20205;-78
2022/09/10 03:21:08;;;;;;;1.90;1.00;;;14.60;99.90;;;;;;5071096;28;20201;-76
2022/09/10 03:23:34;;;;;;;3.13;1.13;;;14.60;99.90;;;;;;5072437;28;20181;-79
2022/09/10 03:26:00;;;;;;;3.42;1.30;;;14.60;99.90;;;;;;5071222;28;20740;-80
2022/09/10 03:28:25;;;;;;;1.77;0.80;;;14.50;99.90;;;;;;5071877;28;20185;-78
2022/09/10 03:30:51;;;;;;;1.70;0.93;;;14.40;99.90;;;;;;5069660;28;20177;-78
2022/09/10 03:33:20;;;;;;;0.90;0.80;;;14.50;99.90;;;;;;5068876;28;20177;-77
2022/09/10 03:35:46;;;;;;;1.42;0.90;;;14.50;99.90;;;;;;5072340;28;20199;-80
2022/09/10 03:38:12;;;;;;;1.77;1.00;;;14.50;99.90;;;;;;5071890;28;20230;-79
2022/09/10 03:40:38;;;;;;;2.13;0.80;;;14.60;99.90;;;;;;5071453;28;20557;-78
2022/09/10 03:43:04;;;;;;;4.65;1.10;;;14.70;99.90;;;;;;5069697;28;20215;-80
2022/09/10 03:45:30;;;;;;;2.38;1.10;;;14.70;99.90;;;;;;5070873;28;20311;-77
2022/09/10 03:47:55;;;;;;;2.65;1.00;;;14.80;99.90;;;;;;5071199;28;20654;-81
2022/09/10 03:50:21;;;;;;;2.60;0.90;;;14.80;99.90;;;;;;5070098;28;20639;-78
2022/09/10 03:52:46;;;;;;;1.33;1.00;;;14.90;99.90;;;;;;5069769;28;20621;-78
2022/09/10 03:55:12;;;;;;;2.03;0.90;;;14.90;99.90;;;;;;5069338;28;20201;-81
2022/09/10 03:57:40;;;;;;;2.55;1.10;;;14.80;99.90;;;;;;5071730;28;20185;-79
2022/09/10 04:00:07;;;;;;;1.73;1.00;;;14.90;99.90;;;;;;5072091;28;20213;-80
2022/09/10 04:02:32;;;;;;;1.95;0.90;;;14.90;99.90;;;;;;5070980;28;20275;-80
2022/09/10 04:04:58;;;;;;;1.92;1.10;;;14.90;99.90;;;;;;5071583;28;20599;-81
2022/09/10 04:07:23;;;;;;;1.73;1.00;;;14.90;99.90;;;;;;5071634;28;20186;-78
2022/09/10 04:09:49;;;;;;;1.42;1.05;;;14.90;99.90;;;;;;5072434;28;20190;-80
2022/09/10 04:12:15;;;;;;;2.28;1.10;;;14.90;99.90;;;;;;5070054;28;20277;-79
2022/09/10 04:14:44;;;;;;;3.53;0.98;;;14.90;99.90;;;;;;5069545;28;20242;-77
2022/09/10 04:17:10;;;;;;;3.35;1.35;;;14.80;99.90;;;;;;5071330;28;20230;-79
2022/09/10 04:19:35;;;;;;;1.85;0.95;;;14.80;99.90;;;;;;5071457;28;20260;-78
2022/09/10 04:22:01;;;;;;;3.47;1.20;;;14.80;99.90;;;;;;5069969;28;20205;-80
2022/09/10 04:24:27;;;;;;;2.95;1.02;;;14.70;99.90;;;;;;5071166;28;20279;-81
2022/09/10 04:26:52;;;;;;;2.28;1.23;;;14.70;99.90;;;;;;5071739;28;20213;-78
2022/09/10 04:29:18;;;;;;;1.63;0.90;;;14.70;99.90;;;;;;5072402;28;20180;-79
2022/09/10 04:31:45;;;;;;;2.72;1.08;;;14.70;99.90;;;;;;5072315;28;20181;-79
2022/09/10 04:34:11;;;;;;;1.20;1.00;;;14.70;99.90;;;;;;5070427;28;20205;-79
2022/09/10 04:36:37;;;;;;;3.72;1.30;;;14.60;99.90;;;;;;5071640;28;20647;-79
2022/09/10 04:39:02;;;;;;;3.08;0.90;;;14.60;99.90;;;;;;5072123;28;20251;-78
2022/09/10 04:41:28;;;;;;;4.18;1.30;;;14.60;99.90;;;;;;5072232;28;20273;-80
2022/09/10 04:43:53;;;;;;;2.25;1.05;;;14.60;99.90;;;;;;5071947;28;20186;-81
2022/09/10 04:46:19;;;;;;;2.35;1.23;;;14.60;99.90;;;;;;5071420;28;20231;-80
2022/09/10 04:48:44;;;;;;;1.48;1.17;;;14.60;99.90;;;;;;5070813;28;20177;-76
2022/09/10 04:51:13;;;;;;;2.70;0.95;;;14.40;99.90;;;;;;5071892;28;20252;-80
2022/09/10 04:53:40;;;;;;;1.52;1.00;;;14.30;99.90;;;;;;5071430;28;20243;-79
2022/09/10 04:56:06;;;;;;;2.80;1.13;;;14.20;99.90;;;;;;5071868;28;20577;-78
2022/09/10 04:58:32;;;;;;;1.10;1.00;;;14.20;99.90;;;;;;5072567;28;20214;-80
2022/09/10 05:00:58;;;;;;;1.80;1.10;;;14.10;99.90;;;;;;5072001;28;21104;-79
2022/09/10 05:03:23;;;;;;;2.38;1.10;;;14.00;99.90;;;;;;5070623;28;20181;-78
2022/09/10 05:05:49;;;;;;;2.78;1.33;;;14.00;99.90;;;;;;5071329;28;20354;-79
2022/09/10 05:08:16;;;;;;;2.38;1.30;;;14.10;99.90;;;;;;5072683;28;20177;-78
2022/09/10 05:10:41;;;;;;;1.95;1.30;;;14.00;99.90;;;;;;5070190;28;20180;-79
2022/09/10 05:13:07;;;;;;;3.17;1.30;;;14.00;99.90;;;;;;5070910;28;20683;-77
2022/09/10 05:15:34;;;;;;;3.05;1.52;;;14.10;99.90;;;;;;5071474;28;20212;-80
2022/09/10 05:18:00;;;;;;;4.68;1.58;;;14.00;99.90;;;;;;5071725;28;20264;-81
2022/09/10 05:20:26;;;;;;;1.52;1.27;;;14.10;99.90;;;;;;5073002;28;20197;-79
2022/09/10 05:22:53;;;;;;;1.55;1.38;;;14.00;99.90;;;;;;5070439;28;20202;-77
2022/09/10 05:25:19;;;;;;;4.47;1.70;;;14.00;99.90;;;;;;5073055;28;20651;-78
2022/09/10 05:27:45;;;;;;;2.33;1.30;;;14.00;99.90;;;;;;5076034;28;20196;-79
2022/09/10 05:30:11;;;;;;;1.73;1.20;;;14.10;99.90;;;;;;5075099;28;20731;-78
2022/09/10 05:32:37;;;;;;;3.20;1.30;;;14.20;99.90;;;;;;5074254;28;20213;-81
2022/09/10 05:35:04;;;;;;;1.45;1.23;;;14.20;99.90;;;;;;5071449;28;20285;-80
2022/09/10 05:37:30;;;;;;;2.33;1.20;;;14.20;99.90;;;;;;5072768;28;20182;-79
2022/09/10 05:39:56;;;;;;;3.58;1.30;;;14.40;99.90;;;;;;5072679;28;20192;-79
2022/09/10 05:42:21;;;;;;;1.95;1.10;;;14.60;99.90;;;;;;5073003;28;20209;-77
2022/09/10 05:44:47;;;;;;;2.30;0.90;;;14.70;99.90;;;;;;5072798;28;20202;-80
2022/09/10 05:47:13;;;;;;;2.13;1.05;;;14.90;99.90;;;;;;5072886;28;20180;-80
2022/09/10 05:49:38;;;;;;;2.42;1.00;;;15.10;99.90;;;;;;5072590;28;20174;-79
2022/09/10 05:52:04;;;;;;;2.30;1.10;;;15.30;99.90;;;;;;5071345;28;20189;-79
2022/09/10 05:54:29;;;;;;;4.47;1.27;;;15.60;99.90;;;;;;5073214;28;20204;-78
2022/09/10 05:56:57;;;;;;;2.17;1.10;;;15.90;99.90;;;;;;5071112;28;20177;-79
2022/09/10 05:59:23;;;;;;;2.38;1.23;;;16.10;99.90;;;;;;5070702;28;20181;-80
2022/09/10 06:01:50;;;;;;;2.33;1.00;;;16.30;91.50;;;;;;5073071;28;20220;-80
2022/09/10 06:04:17;;;;;;;4.43;1.35;;;16.40;87.20;;;;;;5071961;28;20274;-79
2022/09/10 06:06:44;;;;;;;1.38;1.05;;;16.40;66.80;;;;;;5070026;28;20189;-79
2022/09/10 06:09:10;;;;;;;2.35;1.17;;;16.50;51.00;;;;;;5072236;28;20182;-79
2022/09/10 06:11:35;;;;;;;2.97;0.90;;;16.60;48.10;;;;;;5072533;28;20249;-79
2022/09/10 06:14:01;;;;;;;2.97;1.27;;;16.70;43.90;;;;;;5072587;28;20193;-78
2022/09/10 06:16:27;;;;;;;2.40;1.23;;;16.80;23.40;;;;;;5072214;28;20213;-80
2022/09/10 06:18:53;;;;;;;1.90;0.90;;;16.90;21.70;;;;;;5068472;28;20631;-80
2022/09/10 06:21:19;;;;;;;2.17;1.02;;;16.90;16.60;;;;;;5069892;28;20220;-81
2022/09/10 06:23:45;;;;;;;2.22;1.23;;;16.80;18.70;;;;;;5072426;28;20187;-79
2022/09/10 06:26:17;;;;;;;1.45;0.77;;;16.80;23.50;;;;;;5071462;28;20292;-80
2022/09/10 06:28:43;;;;;;;2.95;1.15;;;16.90;36.40;;;;;;5070856;28;20178;-79
2022/09/10 06:31:13;;;;;;;2.65;1.20;;;16.90;22.70;;;;;;5071502;28;20178;-79
2022/09/10 06:33:38;;;;;;;2.28;0.90;;;16.90;24.80;;;;;;5072502;28;20193;-77
2022/09/10 06:36:04;;;;;;;2.90;1.25;;;16.90;15.00;;;;;;5069597;28;20248;-78
2022/09/10 06:38:32;;;;;;;2.30;0.98;;;17.00;4.10;;;;;;5070560;28;20272;-79
2022/09/10 06:41:00;;;;;;;2.67;0.98;;;17.00;6.30;;;;;;5070648;28;20425;-79
2022/09/10 06:43:26;;;;;;;2.35;0.80;;;17.00;1.00;;;;;;5070729;28;20239;-76
2022/09/10 06:45:53;;;;;;;4.47;1.27;;;17.00;1.20;;;;;;5069873;28;20284;-79
2022/09/10 06:48:20;;;;;;;2.05;1.10;;;17.00;1.00;;;;;;5068559;28;20710;-80
2022/09/10 06:50:54;;;;;;;2.95;1.00;;;17.20;2.00;;;;;;5070954;28;20217;-79
2022/09/10 06:53:23;;;;;;;2.83;1.58;;;17.30;1.00;;;;;;5070198;28;20173;-80
2022/09/10 06:55:50;;;;;;;2.00;0.80;;;17.30;1.00;;;;;;5070718;28;20573;-77
2022/09/10 06:58:18;;;;;;;1.90;0.82;;;17.50;1.00;;;;;;5069455;28;20746;-79
2022/09/10 07:00:46;;;;;;;3.00;0.93;;;17.70;1.00;;;;;;5071030;28;20675;-79
2022/09/10 07:03:16;;;;;;;2.28;1.15;;;17.90;1.00;;;;;;5070804;28;20559;-80
2022/09/10 07:05:42;;;;;;;4.68;1.25;;;17.90;1.00;;;;;;5068813;28;20270;-79
2022/09/10 07:08:11;;;;;;;3.25;1.15;;;18.00;1.00;;;;;;5068776;28;20192;-77
2022/09/10 07:10:37;;;;;;;1.50;0.90;;;18.00;1.00;;;;;;5070540;28;20173;-80
2022/09/10 07:13:03;;;;;;;3.17;0.85;;;18.00;1.00;;;;;;5069406;28;20192;-79
2022/09/10 07:15:29;;;;;;;3.72;0.85;;;17.90;1.00;;;;;;5070020;28;20201;-77
2022/09/10 07:17:55;;;;;;;1.45;0.70;;;18.00;1.00;;;;;;5069285;28;20186;-80
2022/09/10 07:20:24;;;;;;;2.53;1.13;;;18.00;1.00;;;;;;5069911;28;20530;-79
2022/09/10 07:22:58;;;;;;;2.35;0.93;;;18.00;1.00;;;;;;5069151;28;20476;-78
2022/09/10 07:25:25;;;;;;;2.92;1.13;;;18.00;1.00;;;;;;5070830;28;20204;-78
2022/09/10 07:27:51;;;;;;;3.30;0.80;;;17.90;1.00;;;;;;5070303;28;20189;-78
2022/09/10 07:30:17;;;;;;;2.75;0.75;;;17.90;1.00;;;;;;5071670;28;20177;-77
2022/09/10 07:32:44;;;;;;;1.85;0.90;;;17.90;1.00;;;;;;5070970;28;20250;-78
2022/09/10 07:35:10;;;;;;;3.03;0.70;;;18.00;1.00;;;;;;5069506;28;20204;-77
2022/09/10 07:37:35;;;;;;;1.83;0.80;;;18.10;1.00;;;;;;5070715;28;20196;-80
2022/09/10 07:40:03;;;;;;;2.15;0.85;;;18.10;1.00;;;;;;5070543;28;20353;-80
2022/09/10 07:42:28;;;;;;;2.47;0.98;;;18.30;1.00;;;;;;5070532;28;20205;-77
2022/09/10 07:44:54;;;;;;;2.67;0.77;;;18.50;1.00;;;;;;5070556;28;20274;-79
2022/09/10 07:47:19;;;;;;;2.78;1.00;;;18.70;1.00;;;;;;5068692;28;20717;-80
2022/09/10 07:49:45;;;;;;;1.15;0.80;;;18.70;1.00;;;;;;5067844;28;20192;-81
2022/09/10 07:52:11;;;;;;;2.17;0.90;;;18.50;1.00;;;;;;5068786;28;20185;-78
2022/09/10 07:54:37;;;;;;;3.38;1.20;;;18.40;1.00;;;;;;5069078;28;20751;-79
2022/09/10 07:57:04;;;;;;;2.60;0.82;;;18.60;1.00;;;;;;5069506;28;20494;-80
2022/09/10 07:59:30;;;;;;;2.60;0.90;;;18.80;1.00;;;;;;5068119;28;20177;-80
2022/09/10 08:01:58;;;;;;;1.38;0.77;;;18.70;1.00;;;;;;5068694;28;20198;-79
2022/09/10 08:04:23;;;;;;;2.67;0.90;;;18.60;1.00;;;;;;5068341;28;20200;-79
2022/09/10 08:06:50;;;;;;;2.80;0.90;;;18.80;1.00;;;;;;5065692;28;20182;-80
2022/09/10 08:09:18;;;;;;;2.65;0.90;;;19.10;1.00;;;;;;5067858;28;20181;-78
2022/09/10 08:11:43;;;;;;;2.38;1.05;;;19.10;1.00;;;;;;5069855;28;21081;-77
2022/09/10 08:14:09;;;;;;;2.35;0.90;;;19.20;1.00;;;;;;5070663;28;20240;-80
2022/09/10 08:16:35;;;;;;;1.90;0.52;;;19.20;1.00;;;;;;5070308;28;20210;-82
2022/09/10 08:19:01;;;;;;;1.52;0.77;;;19.30;1.00;;;;;;5070629;28;20184;-77
2022/09/10 08:21:29;;;;;;;1.83;0.75;;;19.20;1.00;;;;;;5069746;28;20709;-79
2022/09/10 08:23:54;;;;;;;2.22;0.70;;;19.20;99.90;;;;;;5070296;28;20239;-79
2022/09/10 08:26:23;;;;;;;2.45;0.70;;;19.10;1.00;;;;;;5069266;28;20189;-80
2022/09/10 08:28:54;;;;;;;1.25;0.70;;;19.00;1.00;;;;;;5067569;28;21190;-80
2022/09/10 08:31:21;;;;;;;2.20;0.80;;;19.00;1.00;;;;;;5066243;28;20288;-78
2022/09/10 08:33:51;;;;;;;2.67;0.95;;;18.80;1.00;;;;;;5066146;28;20254;-81
2022/09/10 08:36:18;;;;;;;1.98;0.75;;;18.90;1.00;;;;;;5075028;28;20185;-79
2022/09/10 08:38:44;;;;;;;1.15;0.73;;;19.20;1.00;;;;;;5067624;28;20185;-80
2022/09/10 08:41:22;;;;;;;1.45;0.60;;;19.20;1.00;;;;;;5066927;28;20189;-79
2022/09/10 08:43:54;;;;;;;2.55;1.00;;;19.30;99.90;;;;;;5066069;28;20208;-80
2022/09/10 08:46:30;;;;;;;2.20;0.68;;;19.40;99.90;;;;;;5066800;28;20166;-79
2022/09/10 08:49:15;;;;;;;2.65;0.80;;;19.50;99.90;;;;;;5067258;28;20181;-81
2022/09/10 08:51:52;;;;;;;1.60;0.88;;;19.60;99.90;;;;;;5066548;28;20180;-78
2022/09/10 08:54:26;;;;;;;1.48;0.70;;;19.50;99.90;;;;;;5066879;28;20215;-79
2022/09/10 08:56:57;;;;;;;0.90;0.63;;;19.70;99.90;;;;;;5066639;28;20180;-77
2022/09/10 08:59:32;;;;;;;1.60;0.70;;;19.60;99.90;;;;;;5067284;28;20178;-79
2022/09/10 09:02:02;;;;;;;1.75;0.85;;;19.70;99.90;;;;;;5070315;28;20204;-78
2022/09/10 09:05:09;;;;;;;0.90;0.52;;;19.80;99.90;;;;;;5070455;28;20205;-79
2022/09/10 09:07:38;;;;;;;1.27;0.70;;;19.90;99.90;;;;;;5068855;28;20185;-78
2022/09/10 09:10:18;;;;;;;2.25;0.68;;;20.30;99.90;;;;;;5070669;28;20213;-77
2022/09/10 09:12:56;;;;;;;2.70;0.68;;;20.40;99.90;;;;;;5069024;28;20247;-80
2022/09/10 09:15:42;;;;;;;1.92;0.63;;;20.20;6.60;;;;;;5069342;28;20793;-80
2022/09/10 09:18:19;;;;;;;1.80;0.70;;;19.90;1.00;;;;;;5068943;28;20197;-78
2022/09/10 09:20:48;;;;;;;1.17;0.50;;;19.90;99.90;;;;;;5069211;28;20218;-79
2022/09/10 09:23:26;;;;;;;2.10;0.65;;;20.00;1.00;;;;;;5070577;28;20272;-80
2022/09/10 09:26:05;;;;;;;1.58;0.60;;;20.10;1.00;;;;;;5070289;28;20687;-77
2022/09/10 09:28:44;;;;;;;2.17;0.57;;;20.40;99.90;;;;;;5069657;28;20266;-78
2022/09/10 09:31:36;;;;;;;2.88;0.57;;;20.30;1.00;;;;;;5069359;28;20185;-78
2022/09/10 09:34:11;;;;;;;1.42;0.60;;;20.40;1.00;;;;;;5070065;28;20726;-79
2022/09/10 09:36:44;;;;;;;2.33;0.90;;;20.40;4.90;;;;;;5066360;28;20199;-78
2022/09/10 09:39:41;;;;;;;1.13;0.60;;;20.10;99.90;;;;;;5069461;28;20181;-79
2022/09/10 09:42:17;;;;;;;0.95;0.57;;;20.10;93.70;;;;;;5058933;28;20209;-79
2022/09/10 09:45:06;;;;;;;1.50;0.52;;;20.00;1.00;;;;;;5067842;28;20204;-79
2022/09/10 09:47:33;;;;;;;1.83;0.63;;;19.90;1.00;;;;;;5068450;28;20269;-78
2022/09/10 09:49:59;;;;;;;1.35;0.50;;;19.80;1.00;;;;;;5068688;28;20235;-79
2022/09/10 09:52:28;;;;;;;1.58;0.50;;;19.70;99.90;;;;;;5066349;28;20181;-79
2022/09/10 09:55:10;;;;;;;0.82;0.50;;;19.60;99.90;;;;;;5064685;28;20247;-83
2022/09/10 09:57:36;;;;;;;0.40;0.40;;;19.60;99.90;;;;;;5066880;28;20185;-86
2022/09/10 10:00:35;;;;;;;1.33;0.45;;;19.80;1.00;;;;;;5065205;28;20227;-85
2022/09/10 10:03:17;;;;;;;1.45;0.50;;;19.80;99.90;;;;;;5067447;28;20213;-86
2022/09/10 10:05:43;;;;;;;2.38;0.40;;;20.10;99.90;;;;;;5065048;28;20754;-86
2022/09/10 10:08:29;;;;;;;0.95;0.40;;;19.80;1.00;;;;;;5060020;28;20185;-87
2022/09/10 10:10:56;;;;;;;0.73;0.47;;;19.80;99.90;;;;;;5065683;28;20197;-86
2022/09/10 10:13:23;;;;;;;1.77;0.50;;;19.90;1.00;;;;;;5067280;28;20188;-89
2022/09/10 10:15:49;;;;;;;1.88;0.70;;;19.70;99.90;;;;;;5281426;22;20227;-86
2022/09/10 10:25:51;;;;;;;0.47;0.38;;;19.50;1.00;;;;;;4981718;28;20215;-89
2022/09/10 10:51:16;;;;;;;0.32;0.32;;;20.70;1.00;;;;;;5628526;23;20304;-86
2022/09/10 10:54:32;;;;;;;1.55;0.60;;;21.00;1.00;;;;;;5046984;28;20182;-86
2022/09/10 10:57:29;;;;;;;1.08;0.50;;;21.00;1.00;;;;;;5016932;28;20590;-87
2022/09/10 11:00:07;;;;;;;0.85;0.50;;;20.70;99.90;;;;;;5034257;28;20278;-86
2022/09/10 11:02:38;;;;;;;0.80;0.40;;;20.70;99.90;;;;;;5037626;28;20237;-87
2022/09/10 11:06:01;;;;;;;0.57;0.38;;;20.60;99.90;;;;;;5035173;28;20226;-86
2022/09/10 11:08:40;;;;;;;0.73;0.40;;;20.60;1.00;;;;;;5021567;28;20282;-86
2022/09/10 11:11:47;;;;;;;2.05;0.50;;;20.60;1.00;;;;;;5039761;28;20205;-87
2022/09/10 11:14:22;;;;;;;0.65;0.40;;;20.40;99.90;;;;;;5005072;28;20226;-86
2022/09/10 11:17:02;;;;;;;0.90;0.40;;;20.30;99.90;;;;;;5032038;28;20563;-86
2022/09/10 11:19:38;;;;;;;0.75;0.30;;;20.20;1.00;;;;;;5036748;28;20214;-86
2022/09/10 11:22:27;;;;;;;1.17;0.57;;;20.20;99.90;;;;;;5051271;28;20282;-86
2022/09/10 11:25:01;;;;;;;0.95;0.40;;;20.20;99.90;;;;;;5035087;28;20206;-86
2022/09/10 11:27:31;;;;;;;0.82;0.32;;;20.30;99.90;;;;;;5034459;28;20185;-86
2022/09/10 11:30:02;;;;;;;0.63;0.35;;;20.30;84.90;;;;;;5035293;28;20336;-87
2022/09/10 11:32:50;;;;;;;1.70;0.32;;;20.10;99.90;;;;;;5050937;28;20194;-87
2022/09/10 11:35:32;;;;;;;1.40;0.30;;;20.30;99.90;;;;;;5034953;28;20210;-87
2022/09/10 11:37:57;;;;;;;0.88;0.30;;;20.50;1.00;;;;;;5031966;28;20195;-87
2022/09/10 11:41:06;;;;;;;0.30;0.22;;;20.50;1.00;;;;;;5035557;28;20186;-87
2022/09/10 11:43:46;;;;;;;1.20;0.40;;;20.50;99.90;;;;;;5029728;28;20545;-86
2022/09/10 11:46:43;;;;;;;0.80;0.47;;;20.90;1.00;;;;;;5050637;28;20308;-85
2022/09/10 11:49:32;;;;;;;0.50;0.35;;;21.20;1.00;;;;;;5030667;28;20201;-87
2022/09/10 11:51:57;;;;;;;2.40;0.50;;;21.60;99.90;;;;;;5036022;28;20231;-87
2022/09/10 11:54:30;;;;;;;0.25;0.20;;;21.90;69.00;;;;;;5036318;28;20237;-87
2022/09/10 11:57:27;;;;;;;0.80;0.40;;;22.20;1.00;;;;;;5034660;28;20194;-86
2022/09/10 12:00:17;;;;;;;1.48;0.52;;;22.60;99.90;;;;;;5049027;28;20195;-86
2022/09/10 12:03:19;;;;;;;0.63;0.30;;;22.40;1.00;;;;;;5036598;28;20228;-86
2022/09/10 12:06:00;;;;;;;0.60;0.35;;;22.30;1.00;;;;;;5006887;28;20218;-87
2022/09/10 12:09:03;;;;;;;0.80;0.40;;;22.50;1.00;;;;;;5033655;28;20181;-86
2022/09/10 12:12:00;;;;;;;0.70;0.20;;;22.20;1.00;;;;;;5052767;28;20244;-85
2022/09/10 12:14:26;;;;;;;0.30;0.30;;;21.70;99.90;;;;;;5034195;28;20693;-86
2022/09/10 12:17:32;;;;;;;0.60;0.30;;;21.60;1.00;;;;;;5034817;28;20259;-86
2022/09/10 12:20:00;;;;;;;0.73;0.32;;;21.40;1.00;;;;;;5027511;28;20199;-86
2022/09/10 12:22:40;;;;;;;0.30;0.22;;;21.70;1.00;;;;;;5036428;28;20214;-86
2022/09/10 12:25:15;;;;;;;0.60;0.40;;;22.10;99.90;;;;;;5034797;28;20215;-86
2022/09/10 12:27:51;;;;;;;1.20;0.40;;;22.70;1.00;;;;;;5038326;28;20615;-85
2022/09/10 12:30:30;;;;;;;0.95;0.47;;;22.80;99.90;;;;;;5036668;28;20294;-87
2022/09/10 12:33:18;;;;;;;0.82;0.57;;;22.50;1.00;;;;;;5037114;28;20271;-87
2022/09/10 12:35:47;;;;;;;0.98;0.50;;;22.00;99.90;;;;;;5039160;28;20238;-88
2022/09/10 12:38:50;;;;;;;0.77;0.40;;;21.80;1.00;;;;;;5039981;28;20175;-87
2022/09/10 12:41:22;;;;;;;0.90;0.30;;;21.60;99.90;;;;;;5060227;28;20327;-88
2022/09/10 12:43:47;;;;;;;0.80;0.40;;;21.70;1.00;;;;;;5040460;28;20652;-87
2022/09/10 12:46:13;;;;;;;0.60;0.22;;;21.80;1.00;;;;;;5039333;28;20216;-88
2022/09/10 12:48:43;;;;;;;0.52;0.20;;;21.50;87.70;;;;;;5038113;28;20182;-88
2022/09/10 12:51:18;;;;;;;0.30;0.30;;;21.30;99.90;;;;;;5041255;28;20256;-87
2022/09/10 12:54:04;;;;;;;0.40;0.30;;;21.60;99.90;;;;;;5042862;28;20277;-87
2022/09/10 12:56:47;;;;;;;0.45;0.30;;;21.50;76.90;;;;;;5038682;28;20174;-87
2022/09/10 12:59:51;;;;;;;0.70;0.30;;;21.40;99.90;;;;;;5042535;28;20201;-87
2022/09/10 13:02:36;;;;;;;0.40;0.40;;;21.50;99.90;;;;;;5040829;28;20215;-88
2022/09/10 13:05:24;;;;;;;1.40;0.70;;;21.50;99.90;;;;;;5035911;28;20206;-85
2022/09/10 13:08:25;;;;;;;0.52;0.40;;;21.20;99.90;;;;;;5040739;28;20245;-88
2022/09/10 13:11:01;;;;;;;1.40;0.60;;;20.70;1.00;;;;;;5035704;28;20201;-86
2022/09/10 13:13:44;;;;;;;2.25;0.40;;;20.60;99.90;;;;;;5039120;28;20281;-85
2022/09/10 13:16:20;;;;;;;2.65;0.60;;;20.20;1.00;;;;;;5053461;28;20918;-84
2022/09/10 13:18:46;;;;;;;0.73;0.68;;;20.00;1.00;;;;;;5038487;28;20243;-84
2022/09/10 13:21:24;;;;;;;2.42;0.98;;;19.80;68.10;;;;;;5039175;28;20206;-86
2022/09/10 13:23:51;;;;;;;0.85;0.50;;;19.70;99.90;;;;;;5037691;28;20656;-86
2022/09/10 13:26:37;;;;;;;0.75;0.50;;;19.90;99.90;;;;;;5037565;28;20188;-83
2022/09/10 13:29:51;;;;;;;0.55;0.50;;;20.10;99.90;;;;;;5035973;28;20182;-84
2022/09/10 13:32:35;;;;;;;0.60;0.40;;;20.00;99.90;;;;;;5037139;28;20202;-84
2022/09/10 13:35:18;;;;;;;1.15;0.47;;;20.10;90.70;;;;;;5050272;28;20203;-85
2022/09/10 13:38:02;;;;;;;1.05;0.60;;;20.20;99.90;;;;;;5045106;28;20194;-84
2022/09/10 13:40:44;;;;;;;0.88;0.80;;;20.60;4.70;;;;;;5033942;28;20197;-84
2022/09/10 13:43:25;;;;;;;0.60;0.60;;;20.60;95.90;;;;;;5035451;28;20280;-84
2022/09/10 13:45:59;;;;;;;0.63;0.60;;;20.80;1.00;;;;;;5035002;28;20573;-85
2022/09/10 13:48:27;;;;;;;0.70;0.47;;;21.10;1.00;;;;;;5035148;28;20191;-85